sensor_id;sensor_type;location;lat;lon;timestamp;P1;durP1;ratioP1;P2;durP2;ratioP2
3757;SDS011;1894;51.038;13.692;2023-06-24T00:00:12;19.23;;;13.03;;
3757;SDS011;1894;51.038;13.692;2023-06-24T00:02:43;19.47;;;12.87;;
3757;SDS011;1894;51.038;13.692;2023-06-24T00:05:12;15.63;;;11.60;;
3757;SDS011;1894;51.038;13.692;2023-06-24T00:07:39;18.83;;;12.30;;
3757;SDS011;1894;51.038;13.692;2023-06-24T00:10:12;13.37;;;11.33;;
3757;SDS011;1894;51.038;13.692;2023-06-24T00:12:42;21.30;;;13.20;;
3757;SDS011;1894;51.038;13.692;2023-06-24T00:15:09;15.77;;;13.00;;
3757;SDS011;1894;51.038;13.692;2023-06-24T00:17:37;19.93;;;13.27;;
3757;SDS011;1894;51.038;13.692;2023-06-24T00:20:04;19.07;;;12.53;;
3757;SDS011;1894;51.038;13.692;2023-06-24T00:22:35;18.33;;;13.27;;
3757;SDS011;1894;51.038;13.692;2023-06-24T00:25:02;16.73;;;12.63;;
3757;SDS011;1894;51.038;13.692;2023-06-24T00:27:31;21.67;;;11.80;;
3757;SDS011;1894;51.038;13.692;2023-06-24T00:29:58;15.17;;;12.93;;
3757;SDS011;1894;51.038;13.692;2023-06-24T00:32:25;13.97;;;11.80;;
3757;SDS011;1894;51.038;13.692;2023-06-24T00:34:52;20.10;;;14.10;;
3757;SDS011;1894;51.038;13.692;2023-06-24T00:37:23;37.83;;;13.93;;
3757;SDS011;1894;51.038;13.692;2023-06-24T00:39:50;24.67;;;15.33;;
3757;SDS011;1894;51.038;13.692;2023-06-24T00:42:17;21.37;;;15.57;;
3757;SDS011;1894;51.038;13.692;2023-06-24T00:44:44;21.17;;;14.77;;
3757;SDS011;1894;51.038;13.692;2023-06-24T00:47:11;20.03;;;16.10;;
3757;SDS011;1894;51.038;13.692;2023-06-24T00:49:38;23.63;;;16.17;;
3757;SDS011;1894;51.038;13.692;2023-06-24T00:52:05;24.03;;;18.00;;
3757;SDS011;1894;51.038;13.692;2023-06-24T00:54:33;25.23;;;15.60;;
3757;SDS011;1894;51.038;13.692;2023-06-24T00:57:00;26.27;;;17.33;;
3757;SDS011;1894;51.038;13.692;2023-06-24T00:59:28;30.87;;;18.80;;
3757;SDS011;1894;51.038;13.692;2023-06-24T01:01:59;32.10;;;18.40;;
3757;SDS011;1894;51.038;13.692;2023-06-24T01:04:33;23.57;;;17.47;;
3757;SDS011;1894;51.038;13.692;2023-06-24T01:07:00;26.30;;;18.60;;
3757;SDS011;1894;51.038;13.692;2023-06-24T01:09:28;22.57;;;17.73;;
3757;SDS011;1894;51.038;13.692;2023-06-24T01:11:55;27.40;;;18.13;;
3757;SDS011;1894;51.038;13.692;2023-06-24T01:14:23;25.07;;;18.43;;
3757;SDS011;1894;51.038;13.692;2023-06-24T01:33:22;27.73;;;20.33;;
3757;SDS011;1894;51.038;13.692;2023-06-24T01:35:59;28.53;;;19.40;;
3757;SDS011;1894;51.038;13.692;2023-06-24T01:38:31;33.43;;;20.90;;
3757;SDS011;1894;51.038;13.692;2023-06-24T01:41:13;28.53;;;21.43;;
3757;SDS011;1894;51.038;13.692;2023-06-24T01:43:45;31.87;;;20.90;;
3757;SDS011;1894;51.038;13.692;2023-06-24T01:46:13;29.40;;;20.17;;
3757;SDS011;1894;51.038;13.692;2023-06-24T01:48:42;30.33;;;19.90;;
3757;SDS011;1894;51.038;13.692;2023-06-24T01:51:17;24.63;;;19.50;;
3757;SDS011;1894;51.038;13.692;2023-06-24T01:53:50;27.77;;;20.10;;
3757;SDS011;1894;51.038;13.692;2023-06-24T01:56:20;29.63;;;20.07;;
3757;SDS011;1894;51.038;13.692;2023-06-24T01:58:50;30.70;;;20.93;;
3757;SDS011;1894;51.038;13.692;2023-06-24T02:01:19;28.03;;;19.50;;
3757;SDS011;1894;51.038;13.692;2023-06-24T02:03:47;34.00;;;19.83;;
3757;SDS011;1894;51.038;13.692;2023-06-24T02:06:16;28.87;;;21.17;;
3757;SDS011;1894;51.038;13.692;2023-06-24T02:08:45;29.43;;;21.07;;
3757;SDS011;1894;51.038;13.692;2023-06-24T02:11:15;35.93;;;22.60;;
3757;SDS011;1894;51.038;13.692;2023-06-24T02:13:43;30.83;;;21.60;;
3757;SDS011;1894;51.038;13.692;2023-06-24T02:16:14;31.67;;;21.03;;
3757;SDS011;1894;51.038;13.692;2023-06-24T02:18:44;31.17;;;22.67;;
3757;SDS011;1894;51.038;13.692;2023-06-24T02:21:11;31.60;;;23.87;;
3757;SDS011;1894;51.038;13.692;2023-06-24T02:23:39;38.43;;;24.20;;
3757;SDS011;1894;51.038;13.692;2023-06-24T02:26:07;33.93;;;23.37;;
3757;SDS011;1894;51.038;13.692;2023-06-24T02:28:36;28.97;;;22.53;;
3757;SDS011;1894;51.038;13.692;2023-06-24T02:31:05;34.47;;;23.83;;
3757;SDS011;1894;51.038;13.692;2023-06-24T02:33:35;33.80;;;23.73;;
3757;SDS011;1894;51.038;13.692;2023-06-24T02:36:02;40.03;;;24.90;;
3757;SDS011;1894;51.038;13.692;2023-06-24T02:38:29;37.20;;;23.83;;
3757;SDS011;1894;51.038;13.692;2023-06-24T02:40:56;34.30;;;25.03;;
3757;SDS011;1894;51.038;13.692;2023-06-24T02:43:24;31.00;;;22.50;;
3757;SDS011;1894;51.038;13.692;2023-06-24T02:45:51;31.23;;;23.70;;
3757;SDS011;1894;51.038;13.692;2023-06-24T02:48:20;34.73;;;23.57;;
3757;SDS011;1894;51.038;13.692;2023-06-24T02:50:48;43.77;;;21.93;;
3757;SDS011;1894;51.038;13.692;2023-06-24T02:53:16;34.87;;;23.60;;
3757;SDS011;1894;51.038;13.692;2023-06-24T02:55:44;31.13;;;22.93;;
3757;SDS011;1894;51.038;13.692;2023-06-24T02:58:12;37.30;;;24.77;;
3757;SDS011;1894;51.038;13.692;2023-06-24T03:01:06;41.70;;;24.17;;
3757;SDS011;1894;51.038;13.692;2023-06-24T03:03:45;33.37;;;23.87;;
3757;SDS011;1894;51.038;13.692;2023-06-24T03:06:16;29.87;;;21.70;;
3757;SDS011;1894;51.038;13.692;2023-06-24T03:08:49;30.43;;;23.67;;
3757;SDS011;1894;51.038;13.692;2023-06-24T03:11:20;28.13;;;21.97;;
3757;SDS011;1894;51.038;13.692;2023-06-24T03:13:48;29.40;;;19.97;;
3757;SDS011;1894;51.038;13.692;2023-06-24T03:16:28;34.37;;;21.70;;
3757;SDS011;1894;51.038;13.692;2023-06-24T03:19:16;36.60;;;22.67;;
3757;SDS011;1894;51.038;13.692;2023-06-24T03:21:48;34.60;;;20.83;;
3757;SDS011;1894;51.038;13.692;2023-06-24T03:24:15;34.20;;;21.47;;
3757;SDS011;1894;51.038;13.692;2023-06-24T03:26:46;30.30;;;20.00;;
3757;SDS011;1894;51.038;13.692;2023-06-24T03:29:15;30.20;;;23.30;;
3757;SDS011;1894;51.038;13.692;2023-06-24T03:31:52;31.33;;;21.73;;
3757;SDS011;1894;51.038;13.692;2023-06-24T03:34:23;30.03;;;21.20;;
3757;SDS011;1894;51.038;13.692;2023-06-24T03:36:52;23.33;;;19.57;;
3757;SDS011;1894;51.038;13.692;2023-06-24T03:39:21;29.97;;;20.20;;
3757;SDS011;1894;51.038;13.692;2023-06-24T03:41:48;32.93;;;19.50;;
3757;SDS011;1894;51.038;13.692;2023-06-24T03:44:15;31.03;;;20.13;;
3757;SDS011;1894;51.038;13.692;2023-06-24T03:46:43;36.10;;;19.80;;
3757;SDS011;1894;51.038;13.692;2023-06-24T03:49:11;22.97;;;18.87;;
3757;SDS011;1894;51.038;13.692;2023-06-24T03:51:38;26.33;;;19.00;;
3757;SDS011;1894;51.038;13.692;2023-06-24T03:54:05;28.33;;;20.50;;
3757;SDS011;1894;51.038;13.692;2023-06-24T03:56:32;31.43;;;21.50;;
3757;SDS011;1894;51.038;13.692;2023-06-24T03:59:00;29.00;;;20.00;;
3757;SDS011;1894;51.038;13.692;2023-06-24T04:01:30;29.23;;;18.87;;
3757;SDS011;1894;51.038;13.692;2023-06-24T04:03:58;21.33;;;16.50;;
3757;SDS011;1894;51.038;13.692;2023-06-24T04:06:26;27.70;;;18.83;;
3757;SDS011;1894;51.038;13.692;2023-06-24T04:08:53;27.93;;;18.43;;
3757;SDS011;1894;51.038;13.692;2023-06-24T04:11:21;24.10;;;16.37;;
3757;SDS011;1894;51.038;13.692;2023-06-24T04:13:48;28.73;;;16.70;;
3757;SDS011;1894;51.038;13.692;2023-06-24T04:16:16;26.43;;;17.53;;
3757;SDS011;1894;51.038;13.692;2023-06-24T04:18:43;24.33;;;16.07;;
3757;SDS011;1894;51.038;13.692;2023-06-24T04:21:10;29.70;;;16.00;;
3757;SDS011;1894;51.038;13.692;2023-06-24T04:23:37;22.67;;;16.30;;
3757;SDS011;1894;51.038;13.692;2023-06-24T04:26:05;35.97;;;18.17;;
3757;SDS011;1894;51.038;13.692;2023-06-24T04:28:32;19.97;;;14.57;;
3757;SDS011;1894;51.038;13.692;2023-06-24T04:31:00;22.93;;;16.00;;
3757;SDS011;1894;51.038;13.692;2023-06-24T04:33:27;19.83;;;16.27;;
3757;SDS011;1894;51.038;13.692;2023-06-24T04:35:54;26.47;;;14.87;;
3757;SDS011;1894;51.038;13.692;2023-06-24T04:38:23;19.77;;;15.00;;
3757;SDS011;1894;51.038;13.692;2023-06-24T04:40:51;23.90;;;14.83;;
3757;SDS011;1894;51.038;13.692;2023-06-24T04:43:18;22.00;;;15.00;;
3757;SDS011;1894;51.038;13.692;2023-06-24T04:45:45;22.10;;;16.50;;
3757;SDS011;1894;51.038;13.692;2023-06-24T04:48:12;29.57;;;17.60;;
3757;SDS011;1894;51.038;13.692;2023-06-24T04:50:39;29.60;;;17.97;;
3757;SDS011;1894;51.038;13.692;2023-06-24T04:53:07;32.70;;;19.40;;
3757;SDS011;1894;51.038;13.692;2023-06-24T04:55:34;23.87;;;19.37;;
3757;SDS011;1894;51.038;13.692;2023-06-24T04:58:02;26.23;;;20.40;;
3757;SDS011;1894;51.038;13.692;2023-06-24T05:00:29;32.50;;;22.13;;
3757;SDS011;1894;51.038;13.692;2023-06-24T05:02:56;31.27;;;22.07;;
3757;SDS011;1894;51.038;13.692;2023-06-24T05:05:23;28.73;;;22.50;;
3757;SDS011;1894;51.038;13.692;2023-06-24T05:07:52;28.50;;;22.47;;
3757;SDS011;1894;51.038;13.692;2023-06-24T05:10:19;29.93;;;23.63;;
3757;SDS011;1894;51.038;13.692;2023-06-24T05:12:46;33.80;;;25.27;;
3757;SDS011;1894;51.038;13.692;2023-06-24T05:15:13;38.90;;;26.57;;
3757;SDS011;1894;51.038;13.692;2023-06-24T05:17:40;31.20;;;23.60;;
3757;SDS011;1894;51.038;13.692;2023-06-24T05:20:07;28.43;;;25.57;;
3757;SDS011;1894;51.038;13.692;2023-06-24T05:22:35;31.70;;;24.77;;
3757;SDS011;1894;51.038;13.692;2023-06-24T05:25:03;32.33;;;24.57;;
3757;SDS011;1894;51.038;13.692;2023-06-24T05:27:30;34.10;;;27.40;;
3757;SDS011;1894;51.038;13.692;2023-06-24T05:29:57;32.87;;;25.30;;
3757;SDS011;1894;51.038;13.692;2023-06-24T05:32:24;33.20;;;25.30;;
3757;SDS011;1894;51.038;13.692;2023-06-24T05:34:51;41.70;;;28.50;;
3757;SDS011;1894;51.038;13.692;2023-06-24T05:37:18;33.40;;;25.93;;
3757;SDS011;1894;51.038;13.692;2023-06-24T05:39:45;35.10;;;26.00;;
3757;SDS011;1894;51.038;13.692;2023-06-24T05:42:12;35.90;;;25.20;;
3757;SDS011;1894;51.038;13.692;2023-06-24T05:44:39;35.07;;;25.43;;
3757;SDS011;1894;51.038;13.692;2023-06-24T05:47:06;40.07;;;26.37;;
3757;SDS011;1894;51.038;13.692;2023-06-24T05:49:33;37.30;;;28.80;;
3757;SDS011;1894;51.038;13.692;2023-06-24T05:52:00;36.67;;;27.40;;
3757;SDS011;1894;51.038;13.692;2023-06-24T05:54:27;28.03;;;23.67;;
3757;SDS011;1894;51.038;13.692;2023-06-24T05:56:54;35.90;;;24.97;;
3757;SDS011;1894;51.038;13.692;2023-06-24T05:59:21;37.20;;;27.10;;
3757;SDS011;1894;51.038;13.692;2023-06-24T06:01:48;38.30;;;25.37;;
3757;SDS011;1894;51.038;13.692;2023-06-24T06:04:15;37.03;;;26.57;;
3757;SDS011;1894;51.038;13.692;2023-06-24T06:06:42;38.83;;;26.40;;
3757;SDS011;1894;51.038;13.692;2023-06-24T06:09:09;33.00;;;27.23;;
3757;SDS011;1894;51.038;13.692;2023-06-24T06:11:36;34.30;;;27.27;;
3757;SDS011;1894;51.038;13.692;2023-06-24T06:14:03;40.27;;;27.40;;
3757;SDS011;1894;51.038;13.692;2023-06-24T06:16:31;36.70;;;28.43;;
3757;SDS011;1894;51.038;13.692;2023-06-24T06:18:58;40.30;;;27.40;;
3757;SDS011;1894;51.038;13.692;2023-06-24T06:21:25;39.63;;;26.60;;
3757;SDS011;1894;51.038;13.692;2023-06-24T06:23:52;39.23;;;25.60;;
3757;SDS011;1894;51.038;13.692;2023-06-24T06:26:19;37.30;;;24.53;;
3757;SDS011;1894;51.038;13.692;2023-06-24T06:28:47;34.40;;;24.50;;
3757;SDS011;1894;51.038;13.692;2023-06-24T06:31:15;36.00;;;25.60;;
3757;SDS011;1894;51.038;13.692;2023-06-24T06:33:46;39.17;;;25.70;;
3757;SDS011;1894;51.038;13.692;2023-06-24T06:36:14;30.23;;;24.20;;
3757;SDS011;1894;51.038;13.692;2023-06-24T06:38:41;32.40;;;23.53;;
3757;SDS011;1894;51.038;13.692;2023-06-24T06:41:08;32.27;;;25.20;;
3757;SDS011;1894;51.038;13.692;2023-06-24T06:43:35;32.40;;;24.93;;
3757;SDS011;1894;51.038;13.692;2023-06-24T06:46:02;26.53;;;23.30;;
3757;SDS011;1894;51.038;13.692;2023-06-24T06:48:29;28.23;;;22.07;;
3757;SDS011;1894;51.038;13.692;2023-06-24T06:50:56;30.63;;;22.57;;
3757;SDS011;1894;51.038;13.692;2023-06-24T06:53:23;31.03;;;21.90;;
3757;SDS011;1894;51.038;13.692;2023-06-24T06:55:50;42.07;;;23.23;;
3757;SDS011;1894;51.038;13.692;2023-06-24T06:58:17;26.60;;;20.33;;
3757;SDS011;1894;51.038;13.692;2023-06-24T07:00:44;33.60;;;22.50;;
3757;SDS011;1894;51.038;13.692;2023-06-24T07:03:11;28.50;;;22.30;;
3757;SDS011;1894;51.038;13.692;2023-06-24T07:05:38;29.83;;;20.23;;
3757;SDS011;1894;51.038;13.692;2023-06-24T07:08:06;27.10;;;17.80;;
3757;SDS011;1894;51.038;13.692;2023-06-24T07:10:33;24.30;;;18.00;;
3757;SDS011;1894;51.038;13.692;2023-06-24T07:13:00;23.50;;;17.90;;
3757;SDS011;1894;51.038;13.692;2023-06-24T07:15:27;19.70;;;17.70;;
3757;SDS011;1894;51.038;13.692;2023-06-24T07:17:54;19.97;;;17.10;;
3757;SDS011;1894;51.038;13.692;2023-06-24T07:20:22;18.37;;;15.40;;
3757;SDS011;1894;51.038;13.692;2023-06-24T07:22:49;18.27;;;15.30;;
3757;SDS011;1894;51.038;13.692;2023-06-24T07:25:16;16.80;;;13.83;;
3757;SDS011;1894;51.038;13.692;2023-06-24T07:27:43;20.43;;;14.57;;
3757;SDS011;1894;51.038;13.692;2023-06-24T07:30:10;23.67;;;13.90;;
3757;SDS011;1894;51.038;13.692;2023-06-24T07:32:37;18.10;;;12.73;;
3757;SDS011;1894;51.038;13.692;2023-06-24T07:35:05;17.03;;;10.33;;
3757;SDS011;1894;51.038;13.692;2023-06-24T07:37:33;15.07;;;12.43;;
3757;SDS011;1894;51.038;13.692;2023-06-24T07:40:01;14.20;;;10.70;;
3757;SDS011;1894;51.038;13.692;2023-06-24T07:42:29;13.80;;;10.73;;
3757;SDS011;1894;51.038;13.692;2023-06-24T07:44:57;18.47;;;10.40;;
3757;SDS011;1894;51.038;13.692;2023-06-24T07:47:24;19.87;;;11.17;;
3757;SDS011;1894;51.038;13.692;2023-06-24T07:49:51;16.40;;;13.40;;
3757;SDS011;1894;51.038;13.692;2023-06-24T07:52:18;19.73;;;12.83;;
3757;SDS011;1894;51.038;13.692;2023-06-24T07:54:45;19.67;;;12.30;;
3757;SDS011;1894;51.038;13.692;2023-06-24T07:57:12;17.23;;;12.87;;
3757;SDS011;1894;51.038;13.692;2023-06-24T07:59:39;20.90;;;12.93;;
3757;SDS011;1894;51.038;13.692;2023-06-24T08:02:06;16.60;;;11.30;;
3757;SDS011;1894;51.038;13.692;2023-06-24T08:04:33;13.27;;;11.50;;
3757;SDS011;1894;51.038;13.692;2023-06-24T08:07:00;14.20;;;12.10;;
3757;SDS011;1894;51.038;13.692;2023-06-24T08:09:29;21.37;;;11.20;;
3757;SDS011;1894;51.038;13.692;2023-06-24T08:11:57;14.47;;;11.10;;
3757;SDS011;1894;51.038;13.692;2023-06-24T08:14:24;15.80;;;11.10;;
3757;SDS011;1894;51.038;13.692;2023-06-24T08:16:51;13.47;;;9.67;;
3757;SDS011;1894;51.038;13.692;2023-06-24T08:19:18;11.10;;;9.60;;
3757;SDS011;1894;51.038;13.692;2023-06-24T08:21:45;18.63;;;10.80;;
3757;SDS011;1894;51.038;13.692;2023-06-24T08:24:12;11.90;;;8.27;;
3757;SDS011;1894;51.038;13.692;2023-06-24T08:26:39;17.73;;;8.70;;
3757;SDS011;1894;51.038;13.692;2023-06-24T08:29:06;9.17;;;7.67;;
3757;SDS011;1894;51.038;13.692;2023-06-24T08:31:34;11.20;;;8.50;;
3757;SDS011;1894;51.038;13.692;2023-06-24T08:34:01;8.63;;;7.70;;
3757;SDS011;1894;51.038;13.692;2023-06-24T08:36:33;9.47;;;7.73;;
3757;SDS011;1894;51.038;13.692;2023-06-24T08:39:00;9.47;;;7.33;;
3757;SDS011;1894;51.038;13.692;2023-06-24T08:41:27;8.10;;;6.57;;
3757;SDS011;1894;51.038;13.692;2023-06-24T08:43:54;7.63;;;6.07;;
3757;SDS011;1894;51.038;13.692;2023-06-24T08:46:22;10.83;;;6.60;;
3757;SDS011;1894;51.038;13.692;2023-06-24T08:48:59;5.87;;;4.77;;
3757;SDS011;1894;51.038;13.692;2023-06-24T08:51:35;12.10;;;5.90;;
3757;SDS011;1894;51.038;13.692;2023-06-24T08:54:07;12.63;;;6.40;;
3757;SDS011;1894;51.038;13.692;2023-06-24T08:56:37;12.10;;;6.50;;
3757;SDS011;1894;51.038;13.692;2023-06-24T08:59:08;8.47;;;7.03;;
3757;SDS011;1894;51.038;13.692;2023-06-24T09:01:35;7.53;;;6.00;;
3757;SDS011;1894;51.038;13.692;2023-06-24T09:04:02;7.50;;;5.70;;
3757;SDS011;1894;51.038;13.692;2023-06-24T09:06:31;10.43;;;6.23;;
3757;SDS011;1894;51.038;13.692;2023-06-24T09:08:58;14.03;;;6.30;;
3757;SDS011;1894;51.038;13.692;2023-06-24T09:11:25;10.47;;;6.50;;
3757;SDS011;1894;51.038;13.692;2023-06-24T09:13:59;10.90;;;6.10;;
3757;SDS011;1894;51.038;13.692;2023-06-24T09:16:27;7.43;;;6.27;;
3757;SDS011;1894;51.038;13.692;2023-06-24T09:18:56;7.20;;;5.87;;
3757;SDS011;1894;51.038;13.692;2023-06-24T09:21:26;9.23;;;6.70;;
3757;SDS011;1894;51.038;13.692;2023-06-24T09:23:57;6.30;;;5.27;;
3757;SDS011;1894;51.038;13.692;2023-06-24T09:26:25;8.00;;;5.17;;
3757;SDS011;1894;51.038;13.692;2023-06-24T09:28:53;9.13;;;4.33;;
3757;SDS011;1894;51.038;13.692;2023-06-24T09:31:23;9.53;;;6.10;;
3757;SDS011;1894;51.038;13.692;2023-06-24T09:33:51;10.07;;;5.70;;
3757;SDS011;1894;51.038;13.692;2023-06-24T09:36:18;8.70;;;6.87;;
3757;SDS011;1894;51.038;13.692;2023-06-24T09:38:45;6.43;;;5.70;;
3757;SDS011;1894;51.038;13.692;2023-06-24T09:41:13;5.90;;;4.83;;
3757;SDS011;1894;51.038;13.692;2023-06-24T09:43:42;10.70;;;5.40;;
3757;SDS011;1894;51.038;13.692;2023-06-24T09:46:13;6.63;;;5.23;;
3757;SDS011;1894;51.038;13.692;2023-06-24T09:48:42;9.93;;;5.50;;
3757;SDS011;1894;51.038;13.692;2023-06-24T09:51:09;9.80;;;5.43;;
3757;SDS011;1894;51.038;13.692;2023-06-24T09:53:39;7.93;;;5.70;;
3757;SDS011;1894;51.038;13.692;2023-06-24T09:56:08;8.90;;;5.80;;
3757;SDS011;1894;51.038;13.692;2023-06-24T09:58:38;8.53;;;4.70;;
3757;SDS011;1894;51.038;13.692;2023-06-24T10:01:08;5.40;;;4.50;;
3757;SDS011;1894;51.038;13.692;2023-06-24T10:03:35;9.43;;;5.63;;
3757;SDS011;1894;51.038;13.692;2023-06-24T10:06:04;7.90;;;4.90;;
3757;SDS011;1894;51.038;13.692;2023-06-24T10:08:32;5.97;;;5.37;;
3757;SDS011;1894;51.038;13.692;2023-06-24T10:11:00;7.60;;;5.53;;
3757;SDS011;1894;51.038;13.692;2023-06-24T10:13:28;6.30;;;5.70;;
3757;SDS011;1894;51.038;13.692;2023-06-24T10:15:56;6.23;;;5.63;;
3757;SDS011;1894;51.038;13.692;2023-06-24T10:21:07;8.20;;;6.23;;
3757;SDS011;1894;51.038;13.692;2023-06-24T10:26:29;9.40;;;5.60;;
3757;SDS011;1894;51.038;13.692;2023-06-24T10:36:58;10.77;;;5.70;;
3757;SDS011;1894;51.038;13.692;2023-06-24T10:42:28;9.23;;;5.30;;
3757;SDS011;1894;51.038;13.692;2023-06-24T10:45:13;6.20;;;5.53;;
3757;SDS011;1894;51.038;13.692;2023-06-24T10:50:09;5.70;;;5.17;;
3757;SDS011;1894;51.038;13.692;2023-06-24T10:52:45;8.70;;;5.43;;
3757;SDS011;1894;51.038;13.692;2023-06-24T10:55:13;7.73;;;5.50;;
3757;SDS011;1894;51.038;13.692;2023-06-24T10:57:44;5.53;;;4.60;;
3757;SDS011;1894;51.038;13.692;2023-06-24T11:00:12;4.30;;;3.90;;
3757;SDS011;1894;51.038;13.692;2023-06-24T11:02:40;5.23;;;4.80;;
3757;SDS011;1894;51.038;13.692;2023-06-24T11:05:08;8.47;;;5.10;;
3757;SDS011;1894;51.038;13.692;2023-06-24T11:07:36;6.93;;;5.33;;
3757;SDS011;1894;51.038;13.692;2023-06-24T11:10:09;5.83;;;4.93;;
3757;SDS011;1894;51.038;13.692;2023-06-24T11:12:40;6.43;;;5.20;;
3757;SDS011;1894;51.038;13.692;2023-06-24T11:15:11;7.60;;;5.40;;
3757;SDS011;1894;51.038;13.692;2023-06-24T11:17:39;7.27;;;4.83;;
3757;SDS011;1894;51.038;13.692;2023-06-24T11:20:08;6.00;;;5.30;;
3757;SDS011;1894;51.038;13.692;2023-06-24T11:22:36;5.80;;;5.20;;
3757;SDS011;1894;51.038;13.692;2023-06-24T11:25:05;8.33;;;5.33;;
3757;SDS011;1894;51.038;13.692;2023-06-24T11:27:33;7.00;;;5.87;;
3757;SDS011;1894;51.038;13.692;2023-06-24T11:30:00;9.60;;;5.83;;
3757;SDS011;1894;51.038;13.692;2023-06-24T11:35:05;14.33;;;5.40;;
3757;SDS011;1894;51.038;13.692;2023-06-24T11:37:34;6.70;;;5.33;;
3757;SDS011;1894;51.038;13.692;2023-06-24T11:40:05;12.50;;;5.60;;
3757;SDS011;1894;51.038;13.692;2023-06-24T11:42:38;7.33;;;6.23;;
3757;SDS011;1894;51.038;13.692;2023-06-24T11:45:07;7.40;;;5.83;;
3757;SDS011;1894;51.038;13.692;2023-06-24T11:47:42;10.33;;;5.50;;
3757;SDS011;1894;51.038;13.692;2023-06-24T11:50:09;9.13;;;5.77;;
3757;SDS011;1894;51.038;13.692;2023-06-24T11:52:44;8.67;;;5.77;;
3757;SDS011;1894;51.038;13.692;2023-06-24T11:57:58;5.33;;;4.83;;
3757;SDS011;1894;51.038;13.692;2023-06-24T12:00:27;8.73;;;5.30;;
3757;SDS011;1894;51.038;13.692;2023-06-24T12:02:56;6.87;;;5.10;;
3757;SDS011;1894;51.038;13.692;2023-06-24T12:05:34;8.40;;;5.90;;
3757;SDS011;1894;51.038;13.692;2023-06-24T12:08:04;5.03;;;4.27;;
3757;SDS011;1894;51.038;13.692;2023-06-24T12:10:32;4.93;;;4.53;;
3757;SDS011;1894;51.038;13.692;2023-06-24T12:13:02;5.90;;;4.73;;
3757;SDS011;1894;51.038;13.692;2023-06-24T12:15:32;6.30;;;4.83;;
3757;SDS011;1894;51.038;13.692;2023-06-24T12:17:59;4.67;;;3.70;;
3757;SDS011;1894;51.038;13.692;2023-06-24T12:20:29;7.80;;;4.10;;
3757;SDS011;1894;51.038;13.692;2023-06-24T12:23:01;4.43;;;4.10;;
3757;SDS011;1894;51.038;13.692;2023-06-24T12:25:32;6.30;;;4.60;;
3757;SDS011;1894;51.038;13.692;2023-06-24T12:27:59;4.53;;;3.67;;
3757;SDS011;1894;51.038;13.692;2023-06-24T12:30:27;4.77;;;4.37;;
3757;SDS011;1894;51.038;13.692;2023-06-24T12:32:54;4.87;;;3.57;;
3757;SDS011;1894;51.038;13.692;2023-06-24T12:35:22;5.53;;;3.37;;
3757;SDS011;1894;51.038;13.692;2023-06-24T12:37:53;5.30;;;4.80;;
3757;SDS011;1894;51.038;13.692;2023-06-24T12:40:20;3.63;;;3.40;;
3757;SDS011;1894;51.038;13.692;2023-06-24T12:42:47;4.30;;;4.00;;
3757;SDS011;1894;51.038;13.692;2023-06-24T12:45:14;7.67;;;4.70;;
3757;SDS011;1894;51.038;13.692;2023-06-24T12:47:41;3.03;;;2.83;;
3757;SDS011;1894;51.038;13.692;2023-06-24T12:50:09;3.83;;;3.50;;
3757;SDS011;1894;51.038;13.692;2023-06-24T12:52:36;5.50;;;3.40;;
3757;SDS011;1894;51.038;13.692;2023-06-24T12:55:05;3.73;;;3.43;;
3757;SDS011;1894;51.038;13.692;2023-06-24T12:57:33;4.60;;;3.63;;
3757;SDS011;1894;51.038;13.692;2023-06-24T13:00:01;4.00;;;3.70;;
3757;SDS011;1894;51.038;13.692;2023-06-24T13:02:32;3.37;;;3.03;;
3757;SDS011;1894;51.038;13.692;2023-06-24T13:04:59;3.43;;;3.13;;
3757;SDS011;1894;51.038;13.692;2023-06-24T13:07:26;4.87;;;3.37;;
3757;SDS011;1894;51.038;13.692;2023-06-24T13:09:54;6.33;;;3.70;;
3757;SDS011;1894;51.038;13.692;2023-06-24T13:12:21;4.63;;;3.53;;
3757;SDS011;1894;51.038;13.692;2023-06-24T13:14:48;4.47;;;4.13;;
3757;SDS011;1894;51.038;13.692;2023-06-24T13:17:15;4.30;;;3.90;;
3757;SDS011;1894;51.038;13.692;2023-06-24T13:19:42;7.50;;;3.90;;
3757;SDS011;1894;51.038;13.692;2023-06-24T13:22:09;5.67;;;3.70;;
3757;SDS011;1894;51.038;13.692;2023-06-24T13:24:36;7.90;;;3.53;;
3757;SDS011;1894;51.038;13.692;2023-06-24T13:27:03;3.87;;;3.57;;
3757;SDS011;1894;51.038;13.692;2023-06-24T13:29:31;4.93;;;3.53;;
3757;SDS011;1894;51.038;13.692;2023-06-24T13:31:58;4.50;;;3.77;;
3757;SDS011;1894;51.038;13.692;2023-06-24T13:34:25;3.40;;;3.20;;
3757;SDS011;1894;51.038;13.692;2023-06-24T13:36:52;3.60;;;3.27;;
3757;SDS011;1894;51.038;13.692;2023-06-24T13:39:19;3.80;;;3.60;;
3757;SDS011;1894;51.038;13.692;2023-06-24T13:41:50;4.53;;;3.77;;
3757;SDS011;1894;51.038;13.692;2023-06-24T13:44:19;3.97;;;3.60;;
3757;SDS011;1894;51.038;13.692;2023-06-24T13:46:46;3.00;;;2.77;;
3757;SDS011;1894;51.038;13.692;2023-06-24T13:49:13;4.57;;;3.40;;
3757;SDS011;1894;51.038;13.692;2023-06-24T13:51:40;3.83;;;3.00;;
3757;SDS011;1894;51.038;13.692;2023-06-24T13:54:07;8.00;;;3.17;;
3757;SDS011;1894;51.038;13.692;2023-06-24T13:56:34;2.70;;;2.53;;
3757;SDS011;1894;51.038;13.692;2023-06-24T13:59:02;4.73;;;3.03;;
3757;SDS011;1894;51.038;13.692;2023-06-24T14:01:29;2.90;;;2.60;;
3757;SDS011;1894;51.038;13.692;2023-06-24T14:03:57;9.20;;;2.93;;
3757;SDS011;1894;51.038;13.692;2023-06-24T14:06:24;5.23;;;3.63;;
3757;SDS011;1894;51.038;13.692;2023-06-24T14:08:51;2.87;;;2.67;;
3757;SDS011;1894;51.038;13.692;2023-06-24T14:11:20;2.80;;;2.60;;
3757;SDS011;1894;51.038;13.692;2023-06-24T14:13:47;2.80;;;2.20;;
3757;SDS011;1894;51.038;13.692;2023-06-24T14:16:14;3.03;;;2.70;;
3757;SDS011;1894;51.038;13.692;2023-06-24T14:18:43;7.53;;;2.87;;
3757;SDS011;1894;51.038;13.692;2023-06-24T14:21:10;6.17;;;2.80;;
3757;SDS011;1894;51.038;13.692;2023-06-24T14:23:38;4.93;;;2.87;;
3757;SDS011;1894;51.038;13.692;2023-06-24T14:26:06;3.00;;;2.80;;
3757;SDS011;1894;51.038;13.692;2023-06-24T14:28:34;3.23;;;3.00;;
3757;SDS011;1894;51.038;13.692;2023-06-24T14:31:01;3.20;;;3.00;;
3757;SDS011;1894;51.038;13.692;2023-06-24T14:33:28;3.20;;;3.00;;
3757;SDS011;1894;51.038;13.692;2023-06-24T14:35:55;5.50;;;2.53;;
3757;SDS011;1894;51.038;13.692;2023-06-24T14:38:22;3.60;;;3.00;;
3757;SDS011;1894;51.038;13.692;2023-06-24T14:40:52;3.80;;;3.60;;
3757;SDS011;1894;51.038;13.692;2023-06-24T14:43:20;2.90;;;2.77;;
3757;SDS011;1894;51.038;13.692;2023-06-24T14:45:47;3.10;;;2.90;;
3757;SDS011;1894;51.038;13.692;2023-06-24T14:48:14;3.30;;;2.90;;
3757;SDS011;1894;51.038;13.692;2023-06-24T14:50:41;4.13;;;3.27;;
3757;SDS011;1894;51.038;13.692;2023-06-24T14:53:08;2.47;;;2.37;;
3757;SDS011;1894;51.038;13.692;2023-06-24T14:55:35;3.30;;;3.00;;
3757;SDS011;1894;51.038;13.692;2023-06-24T14:58:02;5.60;;;2.80;;
3757;SDS011;1894;51.038;13.692;2023-06-24T15:00:30;5.20;;;3.47;;
3757;SDS011;1894;51.038;13.692;2023-06-24T15:02:57;4.20;;;3.40;;
3757;SDS011;1894;51.038;13.692;2023-06-24T15:05:24;6.43;;;2.50;;
3757;SDS011;1894;51.038;13.692;2023-06-24T15:07:51;3.53;;;3.23;;
3757;SDS011;1894;51.038;13.692;2023-06-24T15:10:18;3.47;;;3.10;;
3757;SDS011;1894;51.038;13.692;2023-06-24T15:12:45;5.07;;;2.73;;
3757;SDS011;1894;51.038;13.692;2023-06-24T15:15:13;3.93;;;3.10;;
3757;SDS011;1894;51.038;13.692;2023-06-24T15:17:40;3.03;;;2.83;;
3757;SDS011;1894;51.038;13.692;2023-06-24T15:20:11;6.07;;;3.27;;
3757;SDS011;1894;51.038;13.692;2023-06-24T15:22:38;3.93;;;3.53;;
3757;SDS011;1894;51.038;13.692;2023-06-24T15:25:06;6.27;;;3.27;;
3757;SDS011;1894;51.038;13.692;2023-06-24T15:27:34;3.10;;;2.80;;
3757;SDS011;1894;51.038;13.692;2023-06-24T15:30:01;2.80;;;2.23;;
3757;SDS011;1894;51.038;13.692;2023-06-24T15:32:28;9.83;;;2.57;;